createdAt,value
2019-05-19T00:00:24.462Z,0.00
2019-05-19T00:01:24.414Z,0.00
2019-05-19T00:02:24.314Z,0.00
2019-05-19T00:03:24.236Z,0.00
2019-05-19T00:04:24.159Z,0.00
2019-05-19T00:05:24.086Z,0.00
2019-05-19T00:06:24.010Z,0.00
2019-05-19T00:07:23.935Z,0.00
2019-05-19T00:08:23.859Z,0.00
2019-05-19T00:09:23.784Z,0.00
2019-05-19T00:10:23.834Z,0.00
2019-05-19T00:11:23.633Z,0.00
2019-05-19T00:12:23.562Z,0.00
2019-05-19T00:13:23.482Z,0.00
2019-05-19T00:14:23.407Z,0.00
2019-05-19T00:15:23.331Z,0.00
2019-05-19T00:16:23.256Z,0.00
2019-05-19T00:17:23.182Z,0.00
2019-05-19T00:18:23.106Z,0.00
2019-05-19T00:19:26.605Z,0.00
2019-05-19T00:20:22.981Z,0.00
2019-05-19T00:21:22.879Z,0.00
2019-05-19T00:22:22.805Z,0.00
2019-05-19T00:23:22.731Z,0.00
2019-05-19T00:24:22.655Z,0.00
2019-05-19T00:25:22.583Z,0.00
2019-05-19T00:26:22.504Z,0.00
2019-05-19T00:27:22.458Z,0.00
2019-05-19T00:28:22.355Z,0.00
2019-05-19T00:29:22.277Z,0.00
2019-05-19T00:30:22.244Z,0.00
2019-05-19T00:31:22.131Z,0.00
2019-05-19T00:32:22.053Z,0.00
2019-05-19T00:33:21.978Z,0.00
2019-05-19T00:34:21.901Z,0.00
2019-05-19T00:35:21.858Z,0.00
2019-05-19T00:36:21.749Z,0.00
2019-05-19T00:37:21.674Z,0.00
2019-05-19T00:38:21.626Z,0.00
2019-05-19T00:39:21.531Z,0.00
2019-05-19T00:40:21.548Z,0.00
2019-05-19T00:41:21.381Z,0.00
2019-05-19T00:42:21.302Z,0.00
2019-05-19T00:43:21.226Z,0.00
2019-05-19T00:44:21.147Z,0.00
2019-05-19T00:45:21.172Z,0.00
2019-05-19T00:46:20.996Z,0.00
2019-05-19T00:47:20.922Z,0.00
2019-05-19T00:48:20.847Z,0.00
2019-05-19T00:49:20.770Z,0.00
2019-05-19T00:50:20.695Z,0.00
2019-05-19T00:51:20.620Z,0.00
2019-05-19T00:52:20.546Z,0.00
2019-05-19T00:53:20.472Z,0.00
2019-05-19T00:54:20.393Z,0.00
2019-05-19T00:55:20.317Z,0.00
2019-05-19T00:56:20.241Z,0.00
2019-05-19T00:57:20.165Z,0.00
2019-05-19T00:58:20.090Z,0.00
2019-05-19T00:59:20.016Z,0.00
2019-05-19T01:00:19.939Z,0.00
2019-05-19T01:01:19.980Z,0.00
2019-05-19T01:02:19.792Z,0.00
2019-05-19T01:03:19.714Z,0.00
2019-05-19T01:04:19.637Z,0.00
2019-05-19T01:05:20.822Z,0.00
2019-05-19T01:06:19.487Z,0.00
2019-05-19T01:07:19.413Z,0.00
2019-05-19T01:08:19.338Z,0.00
2019-05-19T01:09:19.260Z,0.00
2019-05-19T01:10:19.184Z,0.00
2019-05-19T01:11:19.110Z,0.00
2019-05-19T01:12:19.034Z,0.00
2019-05-19T01:13:18.958Z,0.00
2019-05-19T01:14:18.887Z,0.00
2019-05-19T01:15:21.428Z,0.00
2019-05-19T01:17:11.227Z,0.00
2019-05-19T01:18:11.147Z,0.00
2019-05-19T01:19:11.070Z,0.00
2019-05-19T01:20:10.994Z,0.00
2019-05-19T01:21:10.920Z,0.00
2019-05-19T01:22:10.844Z,0.00
2019-05-19T01:23:10.769Z,0.00
2019-05-19T01:24:10.698Z,0.00
2019-05-19T01:25:10.622Z,0.00
2019-05-19T01:26:10.542Z,0.00
2019-05-19T01:27:10.801Z,0.00
2019-05-19T01:28:10.392Z,0.00
2019-05-19T01:29:10.315Z,0.00
2019-05-19T01:30:10.240Z,0.00
2019-05-19T01:31:10.164Z,0.00
2019-05-19T01:32:10.091Z,0.00
2019-05-19T01:33:10.011Z,0.00
2019-05-19T01:34:09.937Z,0.00
2019-05-19T01:35:09.863Z,0.00
2019-05-19T01:36:09.787Z,0.00
2019-05-19T01:37:09.709Z,0.00
2019-05-19T01:38:09.635Z,0.00
2019-05-19T01:39:09.584Z,0.00
2019-05-19T01:40:09.493Z,0.00
2019-05-19T01:41:09.426Z,0.00
2019-05-19T01:42:09.333Z,0.00
2019-05-19T01:43:09.256Z,0.00
2019-05-19T01:44:09.181Z,0.00
2019-05-19T01:45:09.110Z,0.00
2019-05-19T01:46:09.029Z,0.00
2019-05-19T01:47:08.956Z,0.00
2019-05-19T01:48:08.884Z,0.00
2019-05-19T01:49:08.802Z,0.00
2019-05-19T01:50:17.374Z,0.00
2019-05-19T01:51:08.652Z,0.00
2019-05-19T01:52:08.575Z,0.00
2019-05-19T01:53:08.498Z,0.00
2019-05-19T01:54:08.761Z,0.00
2019-05-19T01:55:08.347Z,0.00
2019-05-19T01:56:08.404Z,0.00
2019-05-19T01:57:08.211Z,0.00
2019-05-19T01:58:08.119Z,0.00
2019-05-19T01:59:08.045Z,0.00
2019-05-19T02:00:07.977Z,0.00
2019-05-19T02:01:07.893Z,0.00
2019-05-19T02:02:07.919Z,0.00
2019-05-19T02:03:07.740Z,0.00
2019-05-19T02:04:07.666Z,0.00
2019-05-19T02:05:07.590Z,0.00
2019-05-19T02:06:07.513Z,0.00
2019-05-19T02:07:07.456Z,0.00
2019-05-19T02:08:07.361Z,0.00
2019-05-19T02:09:07.285Z,0.00
2019-05-19T02:10:07.211Z,0.00
2019-05-19T02:11:07.149Z,0.00
2019-05-19T02:12:07.059Z,0.00
2019-05-19T02:13:06.982Z,0.00
2019-05-19T02:14:06.908Z,0.00
2019-05-19T02:15:06.832Z,0.00
2019-05-19T02:16:06.756Z,0.00
2019-05-19T02:17:06.705Z,0.00
2019-05-19T02:18:06.602Z,0.00
2019-05-19T02:19:06.531Z,0.00
2019-05-19T02:20:06.452Z,0.00
2019-05-19T02:21:06.377Z,0.00
2019-05-19T02:22:06.300Z,0.00
2019-05-19T02:23:06.224Z,0.00
2019-05-19T02:24:06.148Z,0.00
2019-05-19T02:25:06.079Z,0.00
2019-05-19T02:26:05.997Z,0.00
2019-05-19T02:27:05.919Z,0.00
2019-05-19T02:28:05.846Z,0.00
2019-05-19T02:29:05.769Z,0.00
2019-05-19T02:30:05.695Z,0.00
2019-05-19T02:31:05.618Z,0.00
2019-05-19T02:32:05.542Z,0.00
2019-05-19T02:33:05.465Z,0.00
2019-05-19T02:34:05.401Z,0.00
2019-05-19T02:35:05.316Z,0.00
2019-05-19T02:36:05.239Z,0.00
2019-05-19T02:37:05.168Z,0.00
2019-05-19T02:38:05.088Z,0.00
2019-05-19T02:39:05.013Z,0.00
2019-05-19T02:40:04.935Z,0.00
2019-05-19T02:41:04.864Z,0.00
2019-05-19T02:42:59.969Z,0.00
2019-05-19T02:43:57.200Z,0.00
2019-05-19T02:44:57.124Z,0.00
2019-05-19T02:45:57.051Z,0.00
2019-05-19T02:46:56.969Z,0.00
2019-05-19T02:47:59.515Z,0.00
2019-05-19T02:49:54.315Z,0.00
2019-05-19T02:50:54.235Z,0.00
2019-05-19T02:51:54.500Z,0.00
2019-05-19T02:52:54.083Z,0.00
2019-05-19T02:53:54.007Z,0.00
2019-05-19T02:54:53.932Z,0.00
2019-05-19T02:55:53.869Z,0.00
2019-05-19T02:56:53.783Z,0.00
2019-05-19T02:57:53.703Z,0.00
2019-05-19T02:58:53.627Z,0.00
2019-05-19T02:59:53.555Z,0.00
2019-05-19T03:00:56.095Z,0.00
2019-05-19T03:01:53.400Z,0.00
2019-05-19T03:02:53.323Z,0.00
2019-05-19T03:03:53.244Z,0.00
2019-05-19T03:04:53.175Z,0.00
2019-05-19T03:05:53.130Z,0.00
2019-05-19T03:06:53.019Z,0.00
2019-05-19T03:07:52.940Z,0.00
2019-05-19T03:08:52.875Z,0.00
2019-05-19T03:09:52.788Z,0.00
2019-05-19T03:10:52.713Z,0.00
2019-05-19T03:11:52.637Z,0.00
2019-05-19T03:12:52.561Z,0.00
2019-05-19T03:13:52.491Z,0.00
2019-05-19T03:14:52.409Z,0.00
2019-05-19T03:15:52.332Z,0.00
2019-05-19T03:16:52.256Z,0.00
2019-05-19T03:17:52.183Z,0.00
2019-05-19T03:18:52.103Z,0.00
2019-05-19T03:19:52.029Z,0.00
2019-05-19T03:21:09.425Z,0.00
2019-05-19T03:21:51.881Z,0.00
2019-05-19T03:22:51.801Z,0.00
2019-05-19T03:23:51.723Z,0.00
2019-05-19T03:24:51.648Z,0.00
2019-05-19T03:25:51.572Z,0.00
2019-05-19T03:26:51.596Z,0.00
2019-05-19T03:27:51.429Z,0.00
2019-05-19T03:28:51.344Z,0.00
2019-05-19T03:29:51.271Z,0.00
2019-05-19T03:30:51.206Z,0.00
2019-05-19T03:31:51.222Z,0.00
2019-05-19T03:32:51.038Z,0.00
2019-05-19T03:33:50.974Z,0.00
2019-05-19T03:34:50.895Z,0.00
2019-05-19T03:35:50.810Z,0.00
2019-05-19T03:36:50.737Z,0.00
2019-05-19T03:37:50.658Z,0.00
2019-05-19T03:38:50.631Z,0.00
2019-05-19T03:39:50.506Z,0.00
2019-05-19T03:40:50.434Z,0.00
2019-05-19T03:41:50.356Z,0.00
2019-05-19T03:42:50.289Z,0.00
2019-05-19T03:43:50.203Z,0.00
2019-05-19T03:44:50.125Z,0.00
2019-05-19T03:45:50.050Z,5.63
2019-05-19T03:46:49.974Z,5.63
2019-05-19T03:47:49.898Z,5.63
2019-05-19T03:48:49.821Z,5.63
2019-05-19T03:49:49.749Z,5.63
2019-05-19T03:50:49.669Z,5.63
2019-05-19T03:51:49.595Z,5.63
2019-05-19T03:52:49.518Z,5.63
2019-05-19T03:53:49.542Z,5.63
2019-05-19T03:54:49.367Z,5.63
2019-05-19T03:55:49.291Z,5.63
2019-05-19T03:56:49.220Z,5.63
2019-05-19T03:57:49.138Z,5.63
2019-05-19T03:58:49.061Z,5.63
2019-05-19T03:59:48.988Z,5.63
2019-05-19T04:00:48.916Z,5.63
2019-05-19T04:01:48.835Z,5.63
2019-05-19T04:02:48.759Z,5.63
2019-05-19T04:03:48.684Z,5.63
2019-05-19T04:04:48.610Z,5.63
2019-05-19T04:05:48.533Z,5.63
2019-05-19T04:06:48.457Z,5.63
2019-05-19T04:07:48.379Z,5.63
2019-05-19T04:08:48.307Z,5.63
2019-05-19T04:09:48.227Z,5.63
2019-05-19T04:10:48.158Z,5.63
2019-05-19T04:11:48.074Z,5.63
2019-05-19T04:12:48.001Z,11.25
2019-05-19T04:13:47.926Z,11.25
2019-05-19T04:14:47.850Z,11.25
2019-05-19T04:15:47.772Z,11.25
2019-05-19T04:16:47.698Z,11.25
2019-05-19T04:17:47.625Z,11.25
2019-05-19T04:18:47.545Z,16.88
2019-05-19T04:19:47.469Z,16.88
2019-05-19T04:20:47.407Z,16.88
2019-05-19T04:21:49.364Z,16.88
2019-05-19T04:22:47.241Z,16.88
2019-05-19T04:23:47.170Z,16.88
2019-05-19T04:24:47.160Z,16.88
2019-05-19T04:25:47.017Z,16.88
2019-05-19T04:26:46.940Z,16.88
2019-05-19T04:27:46.864Z,16.88
2019-05-19T04:28:46.789Z,22.50
2019-05-19T04:29:46.712Z,22.50
2019-05-19T04:30:46.638Z,22.50
2019-05-19T04:31:46.561Z,22.50
2019-05-19T04:32:46.485Z,22.50
2019-05-19T04:33:46.410Z,22.50
2019-05-19T04:34:46.335Z,22.50
2019-05-19T04:35:46.258Z,22.50
2019-05-19T04:36:46.183Z,22.50
2019-05-19T04:37:46.108Z,28.13
2019-05-19T04:38:46.035Z,28.13
2019-05-19T04:39:45.955Z,28.13
2019-05-19T04:40:45.880Z,28.13
2019-05-19T04:41:45.808Z,28.13
2019-05-19T04:42:45.731Z,33.75
2019-05-19T04:43:45.659Z,33.75
2019-05-19T04:44:45.578Z,33.75
2019-05-19T04:45:45.506Z,33.75
2019-05-19T04:46:45.428Z,33.75
2019-05-19T04:47:45.350Z,33.75
2019-05-19T04:48:45.276Z,39.38
2019-05-19T04:49:45.200Z,39.38
2019-05-19T04:50:45.124Z,39.38
2019-05-19T04:51:45.091Z,39.38
2019-05-19T04:52:44.972Z,45.00
2019-05-19T04:53:44.897Z,45.00
2019-05-19T04:54:44.829Z,45.00
2019-05-19T04:55:44.821Z,45.00
2019-05-19T04:56:44.671Z,45.00
2019-05-19T04:57:44.597Z,45.00
2019-05-19T04:58:44.523Z,50.63
2019-05-19T04:59:44.444Z,50.63
2019-05-19T05:00:44.472Z,50.63
2019-05-19T05:01:44.293Z,50.63
2019-05-19T05:02:44.217Z,56.25
2019-05-19T05:03:44.141Z,56.25
2019-05-19T05:04:44.065Z,61.88
2019-05-19T05:05:43.995Z,61.88
2019-05-19T05:06:43.919Z,67.50
2019-05-19T05:07:43.857Z,73.13
2019-05-19T05:08:43.765Z,73.13
2019-05-19T05:09:43.691Z,73.13
2019-05-19T05:10:43.614Z,78.75
2019-05-19T05:11:43.537Z,84.38
2019-05-19T05:12:43.464Z,84.38
2019-05-19T05:13:43.387Z,90.00
2019-05-19T05:14:43.312Z,90.00
2019-05-19T05:15:43.237Z,90.00
2019-05-19T05:16:43.165Z,95.63
2019-05-19T05:17:43.086Z,101.25
2019-05-19T05:18:43.010Z,101.25
2019-05-19T05:19:42.933Z,106.88
2019-05-19T05:20:42.859Z,106.88
2019-05-19T05:21:42.784Z,112.50
2019-05-19T05:22:42.709Z,118.13
2019-05-19T05:23:42.634Z,118.13
2019-05-19T05:24:42.587Z,118.13
2019-05-19T05:25:42.487Z,123.75
2019-05-19T05:26:42.412Z,123.75
2019-05-19T05:27:42.334Z,123.75
2019-05-19T05:28:42.258Z,123.75
2019-05-19T05:29:42.182Z,123.75
2019-05-19T05:30:42.109Z,123.75
2019-05-19T05:31:42.032Z,123.75
2019-05-19T05:32:41.959Z,123.75
2019-05-19T05:33:41.910Z,129.38
2019-05-19T05:34:41.806Z,129.38
2019-05-19T05:35:41.732Z,129.38
2019-05-19T05:36:41.657Z,135.00
2019-05-19T05:37:41.581Z,135.00
2019-05-19T05:38:41.507Z,140.63
2019-05-19T05:39:41.431Z,140.63
2019-05-19T05:40:41.355Z,151.88
2019-05-19T05:41:41.282Z,146.25
2019-05-19T05:42:41.208Z,151.88
2019-05-19T05:43:41.130Z,151.88
2019-05-19T05:44:41.054Z,157.50
2019-05-19T05:45:40.979Z,168.75
2019-05-19T05:46:40.912Z,174.38
2019-05-19T05:47:40.832Z,180.00
2019-05-19T05:48:40.756Z,185.63
2019-05-19T05:49:40.685Z,191.25
2019-05-19T05:50:40.604Z,202.50
2019-05-19T05:51:40.530Z,208.13
2019-05-19T05:52:40.455Z,213.75
2019-05-19T05:53:40.381Z,219.38
2019-05-19T05:54:40.305Z,225.00
2019-05-19T05:55:40.230Z,225.00
2019-05-19T05:56:40.153Z,230.63
2019-05-19T05:57:40.081Z,230.63
2019-05-19T05:58:40.006Z,236.25
2019-05-19T05:59:39.930Z,241.88
2019-05-19T06:00:39.859Z,247.50
2019-05-19T06:01:39.782Z,258.75
2019-05-19T06:02:39.710Z,264.38
2019-05-19T06:03:39.632Z,270.00
2019-05-19T06:04:39.557Z,270.00
2019-05-19T06:05:39.483Z,270.00
2019-05-19T06:06:39.409Z,270.00
2019-05-19T06:07:39.334Z,270.00
2019-05-19T06:08:39.265Z,270.00
2019-05-19T06:09:39.186Z,270.00
2019-05-19T06:10:39.111Z,270.00
2019-05-19T06:11:39.065Z,270.00
2019-05-19T06:12:38.962Z,264.38
2019-05-19T06:13:38.891Z,264.38
2019-05-19T06:14:38.815Z,264.38
2019-05-19T06:15:38.741Z,264.38
2019-05-19T06:16:38.667Z,270.00
2019-05-19T06:17:38.598Z,270.00
2019-05-19T06:18:38.520Z,275.63
2019-05-19T06:19:38.446Z,281.25
2019-05-19T06:20:38.374Z,275.63
2019-05-19T06:21:38.306Z,275.63
2019-05-19T06:22:54.378Z,281.25
2019-05-19T06:23:38.152Z,275.63
2019-05-19T06:24:38.080Z,275.63
2019-05-19T06:25:38.054Z,281.25
2019-05-19T06:26:37.933Z,286.88
2019-05-19T06:27:37.958Z,286.88
2019-05-19T06:28:37.785Z,281.25
2019-05-19T06:29:37.712Z,275.63
2019-05-19T06:30:37.641Z,275.63
2019-05-19T06:31:37.564Z,275.63
2019-05-19T06:32:37.494Z,270.00
2019-05-19T06:33:37.518Z,270.00
2019-05-19T06:34:37.345Z,247.50
2019-05-19T06:35:37.276Z,236.25
2019-05-19T06:36:37.200Z,230.63
2019-05-19T06:37:37.125Z,225.00
2019-05-19T06:38:37.057Z,225.00
2019-05-19T06:39:36.980Z,225.00
2019-05-19T06:40:36.905Z,202.50
2019-05-19T06:41:36.830Z,196.88
2019-05-19T06:42:36.760Z,196.88
2019-05-19T06:43:36.683Z,191.25
2019-05-19T06:44:36.612Z,191.25
2019-05-19T06:45:36.570Z,185.63
2019-05-19T06:46:36.464Z,191.25
2019-05-19T06:47:36.395Z,180.00
2019-05-19T06:48:36.317Z,185.63
2019-05-19T06:49:36.242Z,196.88
2019-05-19T06:50:40.234Z,219.38
2019-05-19T06:51:36.096Z,241.88
2019-05-19T06:52:36.024Z,258.75
2019-05-19T06:53:35.952Z,264.38
2019-05-19T06:54:35.878Z,270.00
2019-05-19T06:55:35.804Z,270.00
2019-05-19T06:56:35.780Z,264.38
2019-05-19T06:57:35.658Z,264.38
2019-05-19T06:58:35.584Z,253.13
2019-05-19T06:59:35.513Z,253.13
2019-05-19T07:00:35.436Z,241.88
2019-05-19T07:01:35.362Z,230.63
2019-05-19T07:02:35.289Z,225.00
2019-05-19T07:03:35.215Z,213.75
2019-05-19T07:04:35.142Z,213.75
2019-05-19T07:05:35.071Z,213.75
2019-05-19T07:06:34.997Z,208.13
2019-05-19T07:07:34.923Z,202.50
2019-05-19T07:08:34.862Z,208.13
2019-05-19T07:09:34.785Z,208.13
2019-05-19T07:10:34.804Z,213.75
2019-05-19T07:11:34.637Z,202.50
2019-05-19T07:12:34.558Z,191.25
2019-05-19T07:13:34.489Z,191.25
2019-05-19T07:14:34.411Z,191.25
2019-05-19T07:15:34.340Z,185.63
2019-05-19T07:16:34.264Z,191.25
2019-05-19T07:17:34.215Z,174.38
2019-05-19T07:18:34.127Z,174.38
2019-05-19T07:19:34.047Z,191.25
2019-05-19T07:20:33.976Z,196.88
2019-05-19T07:21:33.902Z,208.13
2019-05-19T07:22:37.437Z,202.50
2019-05-19T07:23:33.758Z,208.13
2019-05-19T07:24:33.682Z,213.75
2019-05-19T07:25:33.616Z,219.38
2019-05-19T07:26:33.535Z,208.13
2019-05-19T07:27:33.462Z,219.38
2019-05-19T07:28:33.390Z,208.13
2019-05-19T07:29:33.316Z,208.13
2019-05-19T07:30:33.245Z,208.13
2019-05-19T07:31:33.170Z,202.50
2019-05-19T07:32:33.101Z,213.75
2019-05-19T07:33:33.029Z,225.00
2019-05-19T07:34:32.966Z,247.50
2019-05-19T07:35:32.905Z,253.13
2019-05-19T07:36:32.806Z,253.13
2019-05-19T07:37:32.741Z,230.63
2019-05-19T07:38:32.660Z,225.00
2019-05-19T07:39:32.591Z,225.00
2019-05-19T07:40:32.514Z,225.00
2019-05-19T07:41:32.442Z,225.00
2019-05-19T07:42:32.369Z,225.00
2019-05-19T07:43:32.306Z,225.00
2019-05-19T07:44:32.223Z,225.00
2019-05-19T07:45:32.151Z,225.00
2019-05-19T07:46:32.081Z,230.63
2019-05-19T07:47:32.006Z,236.25
2019-05-19T07:48:31.933Z,241.88
2019-05-19T07:49:31.861Z,247.50
2019-05-19T07:50:31.791Z,241.88
2019-05-19T07:51:31.714Z,236.25
2019-05-19T07:52:31.649Z,230.63
2019-05-19T07:53:42.605Z,230.63
2019-05-19T07:54:31.500Z,236.25
2019-05-19T07:55:31.425Z,230.63
2019-05-19T07:56:31.353Z,230.63
2019-05-19T07:57:31.284Z,225.00
2019-05-19T07:58:31.207Z,225.00
2019-05-19T07:59:31.134Z,225.00
2019-05-19T08:00:31.150Z,230.63
2019-05-19T08:01:30.990Z,230.63
2019-05-19T08:02:30.923Z,225.00
2019-05-19T08:03:30.845Z,219.38
2019-05-19T08:04:30.808Z,219.38
2019-05-19T08:05:30.701Z,225.00
2019-05-19T08:06:30.728Z,230.63
2019-05-19T08:07:30.554Z,236.25
2019-05-19T08:08:30.483Z,247.50
2019-05-19T08:09:30.411Z,258.75
2019-05-19T08:10:30.337Z,286.88
2019-05-19T08:11:30.266Z,286.88
2019-05-19T08:12:30.246Z,281.25
2019-05-19T08:13:30.122Z,292.50
2019-05-19T08:14:30.057Z,281.25
2019-05-19T08:15:29.977Z,258.75
2019-05-19T08:16:29.909Z,236.25
2019-05-19T08:17:29.893Z,253.13
2019-05-19T08:18:29.763Z,247.50
2019-05-19T08:19:29.688Z,247.50
2019-05-19T08:20:29.618Z,253.13
2019-05-19T08:21:29.545Z,241.88
2019-05-19T08:22:29.472Z,264.38
2019-05-19T08:23:29.447Z,258.75
2019-05-19T08:24:29.328Z,253.13
2019-05-19T08:25:29.262Z,247.50
2019-05-19T08:26:29.184Z,241.88
2019-05-19T08:27:29.110Z,241.88
2019-05-19T08:28:29.037Z,241.88
2019-05-19T08:29:28.970Z,241.88
2019-05-19T08:30:29.002Z,241.88
2019-05-19T08:31:28.848Z,241.88
2019-05-19T08:32:28.750Z,241.88
2019-05-19T08:33:28.773Z,247.50
2019-05-19T08:34:28.604Z,247.50
2019-05-19T08:35:28.533Z,247.50
2019-05-19T08:36:28.461Z,247.50
2019-05-19T08:37:28.389Z,247.50
2019-05-19T08:38:28.318Z,253.13
2019-05-19T08:39:28.243Z,253.13
2019-05-19T08:40:28.173Z,258.75
2019-05-19T08:41:28.103Z,258.75
2019-05-19T08:42:28.122Z,264.38
2019-05-19T08:43:27.958Z,264.38
2019-05-19T08:44:27.886Z,270.00
2019-05-19T08:45:27.865Z,275.63
2019-05-19T08:46:27.743Z,281.25
2019-05-19T08:47:27.669Z,286.88
2019-05-19T08:48:27.603Z,286.88
2019-05-19T08:49:27.537Z,292.50
2019-05-19T08:50:27.453Z,298.13
2019-05-19T08:51:27.380Z,298.13
2019-05-19T08:52:27.311Z,303.75
2019-05-19T08:53:27.236Z,303.75
2019-05-19T08:54:27.166Z,303.75
2019-05-19T08:55:27.092Z,309.38
2019-05-19T08:56:27.020Z,315.00
2019-05-19T08:57:26.949Z,315.00
2019-05-19T08:58:26.879Z,315.00
2019-05-19T08:59:26.805Z,320.63
2019-05-19T09:00:26.735Z,326.25
2019-05-19T09:01:26.662Z,331.88
2019-05-19T09:02:26.591Z,337.50
2019-05-19T09:03:26.523Z,343.13
2019-05-19T09:04:26.448Z,348.75
2019-05-19T09:05:26.375Z,360.00
2019-05-19T09:06:26.304Z,365.63
2019-05-19T09:07:26.234Z,371.25
2019-05-19T09:08:26.161Z,376.88
2019-05-19T09:09:26.096Z,382.50
2019-05-19T09:10:26.069Z,376.88
2019-05-19T09:11:25.947Z,382.50
2019-05-19T09:12:25.875Z,382.50
2019-05-19T09:13:25.803Z,388.13
2019-05-19T09:14:25.739Z,382.50
2019-05-19T09:15:25.661Z,382.50
2019-05-19T09:16:25.591Z,388.13
2019-05-19T09:17:25.518Z,376.88
2019-05-19T09:18:25.447Z,376.88
2019-05-19T09:19:25.374Z,382.50
2019-05-19T09:20:25.311Z,382.50
2019-05-19T09:21:25.285Z,382.50
2019-05-19T09:22:25.162Z,382.50
2019-05-19T09:23:25.090Z,388.13
2019-05-19T09:24:30.491Z,399.38
2019-05-19T09:25:24.947Z,399.38
2019-05-19T09:26:24.878Z,405.00
2019-05-19T09:27:24.804Z,416.25
2019-05-19T09:28:24.731Z,421.88
2019-05-19T09:29:24.661Z,427.50
2019-05-19T09:30:24.590Z,433.13
2019-05-19T09:31:24.524Z,444.38
2019-05-19T09:32:24.447Z,450.00
2019-05-19T09:33:24.376Z,455.63
2019-05-19T09:34:24.308Z,466.88
2019-05-19T09:35:24.237Z,461.25
2019-05-19T09:36:24.175Z,466.88
2019-05-19T09:37:24.093Z,472.50
2019-05-19T09:38:24.021Z,478.13
2019-05-19T09:39:23.949Z,483.75
2019-05-19T09:40:26.635Z,489.38
2019-05-19T09:41:23.810Z,500.63
2019-05-19T09:42:23.740Z,506.25
2019-05-19T09:43:23.666Z,511.88
2019-05-19T09:44:23.595Z,523.13
2019-05-19T09:45:23.524Z,523.13
2019-05-19T09:46:23.455Z,528.75
2019-05-19T09:47:23.383Z,534.38
2019-05-19T09:48:23.314Z,551.25
2019-05-19T09:49:23.244Z,551.25
2019-05-19T09:50:23.172Z,556.88
2019-05-19T09:51:23.100Z,562.50
2019-05-19T09:52:23.031Z,573.75
2019-05-19T09:53:22.961Z,579.38
2019-05-19T09:54:22.891Z,579.38
2019-05-19T09:55:22.899Z,579.38
2019-05-19T09:56:22.754Z,585.00
2019-05-19T09:57:22.678Z,590.63
2019-05-19T09:58:22.612Z,596.25
2019-05-19T09:59:22.539Z,590.63
2019-05-19T10:00:22.518Z,596.25
2019-05-19T10:01:22.398Z,596.25
2019-05-19T10:02:22.327Z,607.50
2019-05-19T10:03:22.256Z,607.50
2019-05-19T10:04:22.187Z,613.13
2019-05-19T10:05:22.114Z,618.75
2019-05-19T10:06:22.045Z,624.38
2019-05-19T10:07:21.974Z,630.00
2019-05-19T10:08:21.904Z,630.00
2019-05-19T10:09:21.835Z,630.00
2019-05-19T10:10:21.766Z,635.63
2019-05-19T10:11:21.705Z,635.63
2019-05-19T10:12:21.723Z,641.25
2019-05-19T10:13:21.554Z,635.63
2019-05-19T10:14:21.489Z,635.63
2019-05-19T10:15:21.413Z,635.63
2019-05-19T10:16:21.343Z,635.63
2019-05-19T10:17:21.274Z,635.63
2019-05-19T10:18:21.205Z,635.63
2019-05-19T10:19:21.132Z,630.00
2019-05-19T10:20:21.064Z,635.63
2019-05-19T10:21:20.996Z,635.63
2019-05-19T10:22:20.925Z,635.63
2019-05-19T10:23:20.855Z,641.25
2019-05-19T10:24:20.787Z,646.88
2019-05-19T10:25:22.498Z,658.13
2019-05-19T10:26:20.645Z,652.50
2019-05-19T10:27:21.766Z,652.50
2019-05-19T10:28:20.505Z,663.75
2019-05-19T10:29:20.436Z,669.38
2019-05-19T10:30:20.366Z,680.63
2019-05-19T10:31:20.296Z,680.63
2019-05-19T10:32:20.226Z,686.25
2019-05-19T10:33:20.156Z,697.50
2019-05-19T10:34:20.087Z,708.75
2019-05-19T10:35:20.017Z,714.38
2019-05-19T10:36:19.948Z,720.00
2019-05-19T10:37:19.878Z,725.63
2019-05-19T10:38:19.808Z,731.25
2019-05-19T10:39:19.738Z,736.88
2019-05-19T10:40:19.667Z,742.50
2019-05-19T10:41:19.599Z,742.50
2019-05-19T10:42:19.530Z,748.13
2019-05-19T10:43:19.459Z,748.13
2019-05-19T10:44:19.396Z,753.75
2019-05-19T10:45:19.321Z,759.38
2019-05-19T10:46:19.254Z,753.75
2019-05-19T10:47:19.182Z,748.13
2019-05-19T10:48:19.113Z,742.50
2019-05-19T10:49:19.043Z,742.50
2019-05-19T10:50:18.975Z,736.88
2019-05-19T10:51:18.906Z,736.88
2019-05-19T10:52:18.852Z,731.25
2019-05-19T10:53:18.767Z,731.25
2019-05-19T10:54:18.734Z,731.25
2019-05-19T10:55:18.628Z,720.00
2019-05-19T10:56:19.196Z,720.00
2019-05-19T10:57:18.489Z,725.63
2019-05-19T10:58:18.450Z,731.25
2019-05-19T10:59:18.350Z,742.50
2019-05-19T11:00:18.338Z,748.13
2019-05-19T11:01:18.212Z,759.38
2019-05-19T11:02:18.144Z,770.63
2019-05-19T11:03:18.075Z,781.88
2019-05-19T11:04:18.007Z,798.75
2019-05-19T11:05:17.941Z,894.38
2019-05-19T11:06:17.867Z,922.50
2019-05-19T11:07:17.803Z,877.50
2019-05-19T11:08:17.730Z,894.38
2019-05-19T11:09:17.663Z,866.25
2019-05-19T11:10:17.591Z,900.00
2019-05-19T11:11:17.522Z,928.13
2019-05-19T11:14:53.125Z,894.38
2019-05-19T11:15:53.054Z,939.38
2019-05-19T11:16:52.985Z,945.00
2019-05-19T11:17:52.917Z,950.63
2019-05-19T11:18:52.845Z,990.00
2019-05-19T11:19:52.827Z,1006.88
2019-05-19T11:20:52.705Z,1046.25
2019-05-19T11:21:52.635Z,1051.88
2019-05-19T11:22:52.565Z,1102.50
2019-05-19T11:23:52.496Z,1158.75
2019-05-19T11:24:52.473Z,1158.75
2019-05-19T11:25:52.361Z,1181.25
2019-05-19T11:26:52.287Z,1203.75
2019-05-19T11:27:52.218Z,1361.25
2019-05-19T11:28:52.148Z,1198.13
2019-05-19T11:29:52.087Z,1248.75
2019-05-19T11:30:52.008Z,1248.75
2019-05-19T11:31:51.940Z,1203.75
2019-05-19T11:32:51.870Z,1411.88
2019-05-19T11:33:51.800Z,1822.50
2019-05-19T11:35:51.659Z,1766.25
2019-05-19T11:36:51.592Z,1805.63
2019-05-19T11:37:51.522Z,1923.75
2019-05-19T11:38:51.451Z,2553.75
2019-05-19T11:39:51.384Z,2795.63
2019-05-19T11:40:51.315Z,2666.25
2019-05-19T11:41:51.248Z,2463.75
2019-05-19T11:42:51.180Z,2092.50
2019-05-19T11:43:51.212Z,1636.88
2019-05-19T11:44:51.045Z,2002.50
2019-05-19T11:45:50.979Z,2131.88
2019-05-19T11:46:50.911Z,1996.88
2019-05-19T11:47:50.859Z,1732.50
2019-05-19T11:48:50.781Z,1636.88
2019-05-19T11:49:50.725Z,1445.63
2019-05-19T11:50:50.643Z,1479.38
2019-05-19T11:51:50.583Z,1648.13
2019-05-19T11:52:50.511Z,1659.38
2019-05-19T11:53:50.446Z,1749.38
2019-05-19T11:54:50.381Z,2351.25
2019-05-19T11:55:50.315Z,2660.63
2019-05-19T11:56:50.267Z,3211.88
2019-05-19T11:57:51.493Z,3510.00
2019-05-19T11:58:52.763Z,3577.50
2019-05-19T11:59:52.667Z,3493.13
2019-05-19T12:00:53.413Z,3532.50
2019-05-19T12:03:49.785Z,3465.00
2019-05-19T12:04:49.721Z,3729.38
2019-05-19T12:05:49.656Z,4089.38
2019-05-19T12:06:49.591Z,4342.50
2019-05-19T12:07:49.534Z,4573.13
2019-05-19T12:09:31.963Z,4567.50
2019-05-19T12:10:31.901Z,4494.38
2019-05-19T12:11:31.832Z,4140.00
2019-05-19T12:12:31.769Z,3830.63
2019-05-19T12:13:34.805Z,3982.50
2019-05-19T12:19:32.268Z,4606.88
2019-05-19T12:20:32.204Z,4882.50
2019-05-19T12:23:49.610Z,5135.63
2019-05-19T12:24:49.551Z,4888.13
2019-05-19T12:25:49.491Z,4764.38
2019-05-19T12:28:58.446Z,4539.38
2019-05-19T12:29:57.376Z,5023.13
2019-05-19T12:30:57.319Z,5141.25
2019-05-19T12:32:59.295Z,5141.25
2019-05-19T12:33:57.173Z,5051.25
2019-05-19T12:34:57.081Z,5146.88
2019-05-19T12:35:57.022Z,5124.38
2019-05-19T12:36:56.971Z,5085.00
2019-05-19T12:37:56.903Z,5135.63
2019-05-19T12:39:56.786Z,5293.13
2019-05-19T12:40:56.725Z,5191.88
2019-05-19T12:41:56.667Z,5023.13
2019-05-19T12:42:56.609Z,5062.50
2019-05-19T12:43:56.553Z,4938.75
2019-05-19T12:44:56.596Z,5034.38
2019-05-19T12:45:56.447Z,4871.25
2019-05-19T12:46:56.378Z,4905.00
2019-05-19T12:47:56.321Z,5079.38
2019-05-19T12:48:56.271Z,4781.25
2019-05-19T12:49:56.206Z,4398.75
2019-05-19T12:50:56.150Z,4758.75
2019-05-19T12:51:56.093Z,5023.13
2019-05-19T12:52:56.034Z,4820.63
2019-05-19T12:53:55.979Z,4511.25
2019-05-19T12:54:55.945Z,4050.00
2019-05-19T12:55:55.866Z,4145.63
2019-05-19T12:56:55.809Z,4449.38
2019-05-19T12:57:55.753Z,4021.88
2019-05-19T12:58:55.696Z,1395.00
2019-05-19T12:59:55.641Z,877.50
2019-05-19T13:00:55.583Z,787.50
2019-05-19T13:01:55.529Z,933.75
2019-05-19T13:02:55.468Z,1023.75